createdAt,value
2023-04-18T00:00:12.361Z,10.57
2023-04-18T00:02:40.037Z,11.00
2023-04-18T00:05:08.068Z,11.55
2023-04-18T00:07:35.668Z,11.63
2023-04-18T00:10:04.152Z,11.50
2023-04-18T00:12:31.956Z,11.38
2023-04-18T00:15:00.281Z,11.77
2023-04-18T00:17:28.200Z,11.77
2023-04-18T00:19:56.393Z,12.23
2023-04-18T00:22:24.069Z,12.63
2023-04-18T00:24:51.988Z,12.48
2023-04-18T00:27:19.428Z,11.98
2023-04-18T00:29:47.300Z,12.18
2023-04-18T00:32:17.194Z,12.82
2023-04-18T00:34:44.524Z,13.32
2023-04-18T00:37:12.906Z,13.55
2023-04-18T00:39:42.531Z,13.27
2023-04-18T00:42:09.894Z,13.50
2023-04-18T00:44:37.224Z,12.93
2023-04-18T00:47:04.622Z,12.85
2023-04-18T00:49:31.904Z,12.82
2023-04-18T00:51:59.263Z,12.82
2023-04-18T00:54:26.587Z,13.93
2023-04-18T00:56:53.897Z,13.75
2023-04-18T00:59:22.238Z,13.82
2023-04-18T01:01:49.645Z,13.65
2023-04-18T01:04:17.393Z,13.98
2023-04-18T01:06:45.735Z,17.13
2023-04-18T01:09:13.963Z,14.43
2023-04-18T01:11:41.434Z,14.10
2023-04-18T01:14:09.910Z,14.75
2023-04-18T01:16:37.326Z,14.00
2023-04-18T01:19:04.996Z,15.65
2023-04-18T01:21:37.294Z,14.73
2023-04-18T01:24:09.592Z,14.80
2023-04-18T01:26:36.925Z,15.23
2023-04-18T01:29:05.738Z,15.35
2023-04-18T01:31:37.144Z,15.98
2023-04-18T01:34:04.970Z,16.67
2023-04-18T01:36:32.665Z,16.20
2023-04-18T01:39:00.166Z,15.52
2023-04-18T01:41:32.300Z,16.27
2023-04-18T01:43:59.839Z,16.55
2023-04-18T01:46:27.535Z,16.33
2023-04-18T01:48:55.449Z,16.67
2023-04-18T01:51:22.841Z,17.90
2023-04-18T01:53:50.181Z,17.45
2023-04-18T01:56:18.112Z,17.40
2023-04-18T01:58:45.564Z,17.77
2023-04-18T02:01:13.429Z,16.80
2023-04-18T02:03:41.064Z,17.42
2023-04-18T02:06:08.710Z,18.25
2023-04-18T02:08:36.224Z,18.23
2023-04-18T02:11:06.126Z,18.23
2023-04-18T02:13:33.493Z,18.80
2023-04-18T02:16:00.929Z,17.92
2023-04-18T02:18:28.295Z,18.73
2023-04-18T02:20:55.648Z,18.30
2023-04-18T02:23:23.025Z,18.15
2023-04-18T02:25:50.889Z,19.27
2023-04-18T02:28:18.230Z,18.88
2023-04-18T02:30:45.544Z,18.88
2023-04-18T02:33:12.942Z,19.15
2023-04-18T02:35:40.711Z,19.60
2023-04-18T02:38:09.484Z,19.80
2023-04-18T02:40:36.801Z,19.45
2023-04-18T02:43:04.169Z,20.58
2023-04-18T02:45:32.765Z,20.83
2023-04-18T02:48:01.471Z,20.10
2023-04-18T02:50:29.515Z,20.85
2023-04-18T02:52:57.985Z,20.98
2023-04-18T02:55:32.536Z,22.02
2023-04-18T02:58:01.081Z,21.98
2023-04-18T03:01:00.718Z,21.73
2023-04-18T03:03:48.320Z,22.38
2023-04-18T03:06:28.051Z,21.95
2023-04-18T03:08:55.858Z,23.15
2023-04-18T03:11:24.606Z,23.75
2023-04-18T03:13:52.063Z,24.55
2023-04-18T03:16:19.931Z,23.77
2023-04-18T03:18:47.460Z,24.00
2023-04-18T03:21:15.044Z,23.48
2023-04-18T03:23:42.720Z,23.55
2023-04-18T03:26:12.909Z,25.02
2023-04-18T03:28:41.891Z,23.33
2023-04-18T03:31:09.788Z,25.05
2023-04-18T03:33:39.892Z,24.38
2023-04-18T03:36:15.600Z,24.17
2023-04-18T03:38:43.061Z,24.65
2023-04-18T03:41:10.618Z,25.13
2023-04-18T03:43:39.808Z,24.17
2023-04-18T03:46:07.369Z,24.58
2023-04-18T03:48:37.356Z,24.42
2023-04-18T03:51:09.134Z,25.48
2023-04-18T03:53:37.294Z,24.33
2023-04-18T03:56:04.704Z,25.55
2023-04-18T03:58:45.947Z,25.73
2023-04-18T04:01:13.442Z,25.17
2023-04-18T04:03:41.021Z,25.20
2023-04-18T04:06:08.535Z,25.73
2023-04-18T04:08:36.411Z,25.25
2023-04-18T04:11:03.813Z,25.63
2023-04-18T04:13:31.139Z,26.27
2023-04-18T04:15:58.559Z,24.45
2023-04-18T04:18:30.999Z,25.30
2023-04-18T04:21:00.236Z,26.42
2023-04-18T04:23:43.572Z,25.08
2023-04-18T04:26:16.578Z,25.48
2023-04-18T04:28:54.330Z,26.33
2023-04-18T04:31:24.815Z,26.30
2023-04-18T04:33:52.124Z,26.20
2023-04-18T04:36:23.070Z,26.67
2023-04-18T04:38:52.316Z,27.27
2023-04-18T04:41:24.607Z,26.00
2023-04-18T04:43:53.124Z,25.92
2023-04-18T04:46:25.138Z,27.58
2023-04-18T04:48:54.348Z,26.17
2023-04-18T04:51:21.743Z,27.17
2023-04-18T04:53:49.268Z,27.17
2023-04-18T04:56:16.807Z,27.38
2023-04-18T04:58:45.199Z,26.98
2023-04-18T05:01:23.204Z,27.25
2023-04-18T05:03:52.551Z,27.92
2023-04-18T05:06:22.401Z,27.75
2023-04-18T05:08:50.709Z,27.92
2023-04-18T05:11:18.263Z,26.98
2023-04-18T05:13:45.611Z,26.13
2023-04-18T05:16:12.992Z,26.60
2023-04-18T05:18:41.429Z,27.63
2023-04-18T05:21:08.869Z,26.83
2023-04-18T05:23:37.059Z,27.60
2023-04-18T05:26:05.401Z,26.80
2023-04-18T05:28:32.721Z,27.63
2023-04-18T05:31:02.781Z,26.45
2023-04-18T05:33:33.196Z,26.17
2023-04-18T05:36:00.877Z,26.92
2023-04-18T05:38:28.221Z,25.85
2023-04-18T05:40:56.046Z,26.40
2023-04-18T05:43:23.422Z,25.45
2023-04-18T05:45:52.518Z,25.17
2023-04-18T05:48:20.221Z,25.42
2023-04-18T05:50:47.606Z,25.95
2023-04-18T05:53:15.183Z,26.17
2023-04-18T05:55:42.524Z,27.13
2023-04-18T05:58:09.866Z,25.27
2023-04-18T06:00:37.208Z,26.30
2023-04-18T06:03:04.877Z,26.42
2023-04-18T06:05:32.639Z,26.52
2023-04-18T06:08:00.041Z,26.95
2023-04-18T06:10:27.341Z,26.83
2023-04-18T06:12:54.698Z,26.08
2023-04-18T06:15:22.029Z,25.40
2023-04-18T06:17:49.353Z,24.45
2023-04-18T06:20:16.778Z,25.73
2023-04-18T06:22:44.050Z,25.05
2023-04-18T06:25:11.424Z,25.05
2023-04-18T06:27:38.956Z,25.33
2023-04-18T06:30:07.706Z,25.40
2023-04-18T06:32:35.253Z,25.08
2023-04-18T06:35:02.721Z,23.80
2023-04-18T06:37:30.037Z,23.70
2023-04-18T06:39:57.406Z,23.60
2023-04-18T06:42:24.754Z,23.55
2023-04-18T06:44:54.638Z,23.10
2023-04-18T06:47:22.396Z,24.58
2023-04-18T06:49:49.754Z,24.25
2023-04-18T06:52:17.165Z,22.92
2023-04-18T06:54:44.494Z,22.33
2023-04-18T06:57:11.982Z,22.77
2023-04-18T06:59:41.304Z,20.52
2023-04-18T07:02:08.896Z,23.23
2023-04-18T07:04:36.293Z,23.35
2023-04-18T07:07:05.207Z,21.65
2023-04-18T07:09:32.585Z,22.05
2023-04-18T07:11:59.920Z,21.73
2023-04-18T07:14:28.427Z,20.65
2023-04-18T07:16:57.621Z,26.88
2023-04-18T07:19:25.063Z,20.08
2023-04-18T07:21:52.405Z,18.90
2023-04-18T07:24:19.863Z,19.45
2023-04-18T07:26:47.145Z,19.80
2023-04-18T07:29:14.471Z,19.33
2023-04-18T07:31:41.836Z,17.98
2023-04-18T07:34:09.181Z,19.08
2023-04-18T07:36:36.847Z,18.05
2023-04-18T07:39:04.167Z,17.63
2023-04-18T07:41:31.804Z,17.75
2023-04-18T07:43:59.184Z,17.92
2023-04-18T07:46:26.863Z,16.50
2023-04-18T07:48:54.278Z,16.90
2023-04-18T07:51:22.176Z,16.40
2023-04-18T07:53:49.451Z,17.02
2023-04-18T07:56:16.730Z,16.15
2023-04-18T07:58:44.052Z,15.70
2023-04-18T08:01:14.102Z,16.05
2023-04-18T08:03:41.824Z,16.67
2023-04-18T08:06:09.867Z,16.23
2023-04-18T08:08:37.488Z,18.58
2023-04-18T08:11:04.915Z,15.90
2023-04-18T08:13:32.284Z,16.13
2023-04-18T08:16:00.192Z,15.93
2023-04-18T08:18:27.594Z,16.33
2023-04-18T08:20:55.242Z,16.58
2023-04-18T08:23:22.627Z,17.33
2023-04-18T08:25:49.910Z,16.90
2023-04-18T08:28:17.518Z,17.65
2023-04-18T08:30:49.027Z,17.63
2023-04-18T08:33:16.391Z,18.10
2023-04-18T08:35:43.824Z,17.80
2023-04-18T08:38:11.243Z,18.48
2023-04-18T08:40:38.715Z,18.35
2023-04-18T08:43:09.397Z,19.27
2023-04-18T08:45:37.024Z,19.40
2023-04-18T08:48:04.593Z,19.88
2023-04-18T08:50:32.338Z,19.20
2023-04-18T08:53:01.044Z,19.67
2023-04-18T08:55:28.436Z,19.98
2023-04-18T08:57:56.320Z,19.38
2023-04-18T09:00:23.967Z,19.65
2023-04-18T09:02:56.619Z,19.42
2023-04-18T09:05:25.301Z,18.67
2023-04-18T09:07:53.732Z,18.45
2023-04-18T09:10:32.646Z,18.02
2023-04-18T09:13:01.071Z,19.02
2023-04-18T09:15:29.233Z,18.35
2023-04-18T09:17:58.206Z,18.88
2023-04-18T09:20:47.628Z,17.73
2023-04-18T09:23:23.394Z,17.23
2023-04-18T09:25:51.906Z,16.77
2023-04-18T09:28:23.296Z,16.70
2023-04-18T09:30:51.601Z,17.20
2023-04-18T09:33:27.536Z,16.42
2023-04-18T09:36:20.827Z,17.35
2023-04-18T09:38:54.487Z,15.98
2023-04-18T09:41:23.681Z,17.30
2023-04-18T09:43:52.094Z,16.73
2023-04-18T09:46:21.732Z,16.35
2023-04-18T09:48:49.260Z,16.20
2023-04-18T09:51:16.958Z,15.75
2023-04-18T09:53:44.944Z,17.10
2023-04-18T09:56:26.231Z,15.52
2023-04-18T09:59:09.257Z,15.85
2023-04-18T10:01:36.894Z,15.50
2023-04-18T10:04:06.509Z,14.77
2023-04-18T10:06:34.509Z,15.25
2023-04-18T10:09:04.436Z,14.05
2023-04-18T10:11:32.076Z,14.95
2023-04-18T10:14:02.832Z,13.65
2023-04-18T10:16:30.224Z,14.20
2023-04-18T10:18:58.383Z,13.63
2023-04-18T10:21:27.637Z,14.00
2023-04-18T10:23:55.050Z,13.95
2023-04-18T10:26:22.570Z,15.25
2023-04-18T10:28:51.204Z,14.13
2023-04-18T10:31:18.743Z,13.93
2023-04-18T10:34:07.997Z,16.73
2023-04-18T10:36:36.024Z,14.35
2023-04-18T10:39:25.160Z,14.10
2023-04-18T10:41:52.463Z,14.07
2023-04-18T10:44:22.281Z,14.13
2023-04-18T10:46:52.912Z,14.25
2023-04-18T10:49:33.980Z,14.27
2023-04-18T10:52:02.006Z,13.52
2023-04-18T10:54:32.885Z,14.70
2023-04-18T10:57:01.864Z,13.90
2023-04-18T10:59:32.933Z,13.73
2023-04-18T11:02:24.381Z,12.48
2023-04-18T11:05:01.791Z,13.80
2023-04-18T11:07:45.029Z,13.23
2023-04-18T11:10:12.842Z,12.50
2023-04-18T11:12:40.765Z,13.70
2023-04-18T11:15:12.564Z,13.57
2023-04-18T11:17:40.373Z,13.30
2023-04-18T11:20:13.030Z,13.40
2023-04-18T11:22:52.719Z,12.98
2023-04-18T11:25:23.667Z,13.43
2023-04-18T11:27:57.308Z,12.45
2023-04-18T11:30:24.618Z,12.82
2023-04-18T11:32:52.368Z,11.90
2023-04-18T11:35:19.794Z,11.73
2023-04-18T11:37:47.218Z,11.50
2023-04-18T11:40:14.612Z,12.60
2023-04-18T11:42:42.395Z,12.27
2023-04-18T11:45:13.780Z,12.02
2023-04-18T11:47:42.804Z,13.20
2023-04-18T11:50:11.434Z,12.55
2023-04-18T11:52:39.720Z,12.52
2023-04-18T11:55:18.389Z,12.60
2023-04-18T11:57:59.045Z,11.88
2023-04-18T12:00:37.440Z,12.48
2023-04-18T12:03:06.345Z,11.82
2023-04-18T12:05:35.885Z,10.90
2023-04-18T12:08:32.980Z,11.93
2023-04-18T12:11:00.275Z,11.15
2023-04-18T12:13:33.475Z,11.20
2023-04-18T12:16:02.002Z,10.52
2023-04-18T12:18:29.894Z,10.90
2023-04-18T12:20:58.575Z,11.23
2023-04-18T12:23:32.414Z,10.02
2023-04-18T12:26:27.551Z,10.45
2023-04-18T12:28:54.994Z,10.82
2023-04-18T12:31:22.433Z,10.20
2023-04-18T12:33:50.812Z,9.80
2023-04-18T12:36:18.709Z,10.13
2023-04-18T12:38:46.658Z,10.65
2023-04-18T12:41:14.009Z,11.07
2023-04-18T12:43:41.306Z,11.30
2023-04-18T12:46:08.631Z,10.35
2023-04-18T12:48:35.931Z,10.07
2023-04-18T12:51:03.396Z,9.82
2023-04-18T12:53:30.846Z,9.95
2023-04-18T12:55:58.436Z,9.75
2023-04-18T12:58:26.081Z,9.65
2023-04-18T13:00:53.502Z,9.75
2023-04-18T13:03:21.264Z,10.93
2023-04-18T13:05:48.696Z,10.25
2023-04-18T13:08:18.044Z,10.80
2023-04-18T13:10:46.363Z,9.88
2023-04-18T13:13:13.674Z,11.93
2023-04-18T13:15:41.334Z,9.77
2023-04-18T13:18:08.671Z,9.07
2023-04-18T13:20:36.658Z,8.00
2023-04-18T13:23:04.131Z,8.32
2023-04-18T13:25:31.600Z,8.23
2023-04-18T13:28:00.774Z,7.70
2023-04-18T13:30:28.328Z,7.80
2023-04-18T13:32:56.663Z,9.23
2023-04-18T13:35:24.038Z,8.93
2023-04-18T13:37:51.417Z,8.93
2023-04-18T13:40:18.778Z,8.80
2023-04-18T13:42:46.179Z,9.13
2023-04-18T13:45:13.491Z,24.77
2023-04-18T13:47:40.912Z,9.38
2023-04-18T13:50:09.003Z,8.40
2023-04-18T13:52:36.409Z,8.65
2023-04-18T13:55:04.081Z,8.95
2023-04-18T13:57:34.771Z,9.70
2023-04-18T14:00:02.124Z,9.35
2023-04-18T14:02:39.409Z,8.48
2023-04-18T14:05:07.448Z,9.55
2023-04-18T14:07:35.390Z,9.35
2023-04-18T14:10:02.739Z,9.55
2023-04-18T14:12:30.070Z,9.32
2023-04-18T14:14:57.404Z,9.77
2023-04-18T14:17:24.802Z,8.10
2023-04-18T14:19:52.121Z,8.63
2023-04-18T14:22:19.472Z,8.20
2023-04-18T14:24:46.937Z,7.68
2023-04-18T14:27:14.350Z,8.20
2023-04-18T14:29:41.705Z,8.32
2023-04-18T14:32:09.066Z,7.80
2023-04-18T14:34:37.423Z,7.30
2023-04-18T14:37:06.424Z,7.80
2023-04-18T14:39:33.842Z,7.72
2023-04-18T14:42:01.510Z,8.07
2023-04-18T14:44:29.573Z,7.80
2023-04-18T14:46:56.907Z,7.50
2023-04-18T14:49:24.318Z,7.82
2023-04-18T14:51:51.686Z,7.60
2023-04-18T14:54:18.996Z,8.25
2023-04-18T14:56:46.423Z,8.00
2023-04-18T14:59:16.428Z,8.18
2023-04-18T15:01:44.305Z,8.52
2023-04-18T15:04:11.795Z,7.70
2023-04-18T15:06:39.385Z,8.27
2023-04-18T15:09:07.014Z,8.10
2023-04-18T15:11:34.444Z,9.13
2023-04-18T15:14:01.852Z,8.90
2023-04-18T15:16:29.244Z,9.05
2023-04-18T15:18:56.538Z,9.15
2023-04-18T15:21:23.825Z,9.52
2023-04-18T15:23:51.238Z,9.43
2023-04-18T15:26:18.568Z,9.02
2023-04-18T15:28:46.557Z,8.95
2023-04-18T15:31:15.576Z,9.52
2023-04-18T15:33:42.861Z,10.68
2023-04-18T15:36:10.334Z,8.65
2023-04-18T15:38:37.733Z,8.73
2023-04-18T15:41:05.386Z,9.85
2023-04-18T15:43:32.761Z,9.63
2023-04-18T15:46:00.137Z,10.45
2023-04-18T15:48:28.618Z,9.52
2023-04-18T15:50:56.000Z,9.75
2023-04-18T15:53:23.310Z,9.38
2023-04-18T15:55:51.390Z,10.23
2023-04-18T15:58:20.531Z,9.35
2023-04-18T16:00:50.021Z,9.02
2023-04-18T16:03:17.701Z,9.55
2023-04-18T16:05:45.346Z,8.77
2023-04-18T16:08:12.777Z,10.30
2023-04-18T16:10:40.213Z,9.23
2023-04-18T16:13:07.529Z,10.32
2023-04-18T16:15:35.720Z,9.73
2023-04-18T16:18:03.225Z,11.00
2023-04-18T16:20:33.186Z,9.55
2023-04-18T16:23:00.836Z,10.52
2023-04-18T16:25:28.245Z,10.25
2023-04-18T16:27:55.811Z,11.75
2023-04-18T16:30:23.137Z,10.65
2023-04-18T16:32:51.083Z,10.07
2023-04-18T16:35:18.556Z,11.13
2023-04-18T16:37:45.896Z,10.40
2023-04-18T16:40:13.383Z,12.00
2023-04-18T16:42:41.173Z,12.75
2023-04-18T16:45:08.646Z,11.60
2023-04-18T16:47:36.379Z,11.10
2023-04-18T16:50:03.910Z,10.68
2023-04-18T16:52:31.364Z,10.77
2023-04-18T16:54:58.677Z,10.50
2023-04-18T16:57:26.129Z,10.10
2023-04-18T16:59:53.421Z,10.10
2023-04-18T17:02:20.944Z,9.63
2023-04-18T17:04:49.555Z,10.13
2023-04-18T17:07:16.875Z,9.43
2023-04-18T17:09:44.344Z,11.32
2023-04-18T17:12:11.751Z,9.23
2023-04-18T17:14:39.056Z,8.95
2023-04-18T17:17:06.359Z,8.73
2023-04-18T17:19:33.675Z,7.55
2023-04-18T17:22:00.971Z,7.40
2023-04-18T17:24:28.331Z,7.53
2023-04-18T17:26:57.619Z,7.43
2023-04-18T17:29:26.456Z,8.07
2023-04-18T17:31:54.062Z,7.40
2023-04-18T17:34:21.480Z,8.30
2023-04-18T17:36:48.847Z,8.40
2023-04-18T17:39:16.936Z,8.05
2023-04-18T17:41:45.230Z,8.82
2023-04-18T17:44:12.539Z,9.05
2023-04-18T17:46:39.898Z,8.35
2023-04-18T17:49:07.218Z,8.77
2023-04-18T17:51:34.639Z,9.32
2023-04-18T17:54:02.207Z,9.45
2023-04-18T17:56:30.476Z,9.52
2023-04-18T17:58:57.842Z,10.93
2023-04-18T18:01:26.202Z,10.35
2023-04-18T18:03:53.986Z,10.13
2023-04-18T18:06:21.614Z,10.77
2023-04-18T18:08:49.005Z,10.80
2023-04-18T18:11:16.374Z,10.90
2023-04-18T18:13:43.823Z,10.65
2023-04-18T18:16:11.257Z,11.60
2023-04-18T18:18:39.801Z,11.07
2023-04-18T18:21:07.142Z,11.98
2023-04-18T18:23:34.432Z,11.77
2023-04-18T18:26:01.810Z,11.45
2023-04-18T18:28:29.267Z,11.88
2023-04-18T18:30:56.700Z,11.93
2023-04-18T18:33:24.114Z,12.27
2023-04-18T18:35:51.476Z,13.68
2023-04-18T18:38:18.792Z,13.07
2023-04-18T18:40:46.328Z,13.32
2023-04-18T18:43:13.689Z,12.80
2023-04-18T18:45:40.992Z,13.55
2023-04-18T18:48:08.844Z,12.90
2023-04-18T18:50:36.130Z,13.25
2023-04-18T18:53:03.524Z,12.75
2023-04-18T18:55:31.051Z,12.65
2023-04-18T18:57:58.419Z,12.75
2023-04-18T19:00:25.823Z,12.77
2023-04-18T19:02:53.296Z,12.35
2023-04-18T19:05:21.189Z,12.10
2023-04-18T19:07:49.133Z,12.43
2023-04-18T19:10:16.522Z,12.20
2023-04-18T19:12:43.846Z,12.10
2023-04-18T19:15:11.760Z,12.48
2023-04-18T19:17:39.153Z,12.50
2023-04-18T19:20:07.294Z,12.25
2023-04-18T19:22:34.602Z,13.40
2023-04-18T19:25:02.000Z,13.77
2023-04-18T19:27:29.335Z,12.48
2023-04-18T19:29:56.653Z,13.45
2023-04-18T19:32:24.077Z,12.32
2023-04-18T19:34:51.520Z,11.88
2023-04-18T19:37:18.811Z,12.13
2023-04-18T19:39:46.299Z,12.05
2023-04-18T19:42:13.612Z,12.73
2023-04-18T19:44:41.240Z,12.07
2023-04-18T19:47:08.706Z,12.93
2023-04-18T19:49:36.235Z,12.20
2023-04-18T19:52:03.728Z,13.45
2023-04-18T19:54:34.147Z,12.30
2023-04-18T19:57:02.337Z,12.60
2023-04-18T19:59:29.699Z,12.10
2023-04-18T20:01:59.505Z,13.13
2023-04-18T20:04:31.450Z,11.90
2023-04-18T20:06:59.017Z,12.65
2023-04-18T20:09:26.302Z,13.00
2023-04-18T20:11:54.360Z,13.27
2023-04-18T20:14:21.711Z,13.30
2023-04-18T20:16:49.689Z,13.20
2023-04-18T20:19:18.112Z,13.00
2023-04-18T20:21:45.638Z,12.93
2023-04-18T20:24:13.636Z,14.05
2023-04-18T20:26:40.953Z,13.27
2023-04-18T20:29:08.406Z,14.20
2023-04-18T20:31:37.727Z,13.63
2023-04-18T20:34:05.233Z,14.50
2023-04-18T20:36:34.407Z,14.18
2023-04-18T20:39:02.424Z,13.65
2023-04-18T20:41:31.038Z,14.20
2023-04-18T20:43:59.928Z,14.15
2023-04-18T20:46:27.303Z,13.10
2023-04-18T20:48:54.695Z,13.32
2023-04-18T20:51:21.960Z,13.77
2023-04-18T20:53:49.321Z,13.77
2023-04-18T20:56:16.596Z,13.50
2023-04-18T20:58:43.904Z,13.35
2023-04-18T21:01:11.383Z,14.05
2023-04-18T21:03:38.864Z,14.30
2023-04-18T21:06:06.365Z,13.38
2023-04-18T21:08:35.115Z,13.65
2023-04-18T21:11:02.485Z,12.93
2023-04-18T21:13:31.708Z,13.48
2023-04-18T21:15:59.085Z,13.70
2023-04-18T21:18:26.395Z,13.85
2023-04-18T21:20:53.853Z,12.75
2023-04-18T21:23:23.149Z,13.55
2023-04-18T21:25:50.815Z,13.32
2023-04-18T21:28:20.079Z,12.35
2023-04-18T21:30:47.461Z,13.05
2023-04-18T21:33:15.145Z,12.77
2023-04-18T21:35:42.425Z,12.88
2023-04-18T21:38:09.748Z,12.30
2023-04-18T21:40:37.558Z,12.57
2023-04-18T21:43:04.909Z,12.45
2023-04-18T21:45:33.699Z,12.40
2023-04-18T21:48:01.126Z,12.18
2023-04-18T21:50:28.579Z,11.50
2023-04-18T21:52:56.062Z,12.40
2023-04-18T21:55:23.355Z,12.02
2023-04-18T21:57:50.664Z,11.55
2023-04-18T22:00:18.413Z,11.88
2023-04-18T22:02:46.246Z,11.45
2023-04-18T22:05:13.930Z,12.07
2023-04-18T22:07:50.585Z,11.60
2023-04-18T22:10:24.973Z,11.50
2023-04-18T22:12:55.961Z,10.70
2023-04-18T22:15:24.222Z,11.57
2023-04-18T22:17:51.623Z,10.90
2023-04-18T22:20:18.946Z,11.52
2023-04-18T22:22:46.246Z,10.27
2023-04-18T22:25:13.572Z,10.10
2023-04-18T22:27:42.558Z,9.90
2023-04-18T22:30:10.336Z,10.82
2023-04-18T22:32:37.791Z,10.90
2023-04-18T22:35:06.590Z,10.23
2023-04-18T22:37:34.006Z,10.77
2023-04-18T22:40:01.578Z,10.00
2023-04-18T22:42:30.055Z,10.25
2023-04-18T22:44:57.653Z,11.00
2023-04-18T22:47:24.987Z,10.20
2023-04-18T22:49:52.918Z,10.75
2023-04-18T22:52:20.349Z,10.68
2023-04-18T22:54:47.661Z,11.13
2023-04-18T22:57:14.976Z,11.13
2023-04-18T22:59:42.300Z,10.85
2023-04-18T23:02:10.590Z,10.90
2023-04-18T23:04:38.166Z,13.57
2023-04-18T23:07:05.802Z,11.85
2023-04-18T23:09:33.269Z,11.52
2023-04-18T23:12:02.231Z,11.40
2023-04-18T23:14:29.614Z,11.50
2023-04-18T23:16:56.960Z,11.93
2023-04-18T23:19:24.251Z,11.68
2023-04-18T23:21:51.561Z,11.85
2023-04-18T23:24:18.851Z,12.02
2023-04-18T23:26:46.503Z,12.20
2023-04-18T23:29:13.839Z,12.35
2023-04-18T23:31:41.289Z,12.50
2023-04-18T23:34:09.944Z,12.65
2023-04-18T23:36:37.384Z,13.13
2023-04-18T23:39:04.738Z,13.10
2023-04-18T23:41:32.125Z,12.45
2023-04-18T23:44:00.077Z,12.88
2023-04-18T23:46:27.602Z,13.88
2023-04-18T23:48:55.006Z,13.20
2023-04-18T23:51:22.383Z,12.95
2023-04-18T23:53:49.661Z,13.50
2023-04-18T23:56:16.963Z,12.70
2023-04-18T23:58:44.321Z,12.38
